Spencer, Iowa
Current Conditions -  °F | °C
As of 9:53 PM on Sunday 23 Nov 2014 (Local Time) from KSPW Reporting Station
Overcast Overcast  
Wind Chill: 20°   Ceiling: 2500
Heat Index: 32°   Visibility: 10mi
Dew Point: 24°   Wind: 21mph
Humidity: 73%   Direction: 310°NW
Pressure: 29.46"   Gusts: 30mph
Location:  43.14°N, 95.14°W
Report Text: KSPW 240353Z AUTO 31018G26KT 10SM OVC025 00/M04 A2946 RMK AO2 PK WND 31027/0323 SLP984 T00001044 TSNO
Loading
Personal Weather Stations






























Interactive Weather Map New forecast layout! Learn more

10-Day Weather Forecast

Advertisements
Track Severe Weather on mobile